Time;durP1;ratioP1;P1;durP2;ratioP2;P2;SDS_P1;SDS_P2;PMS_P1;PMS_P2;Temp;Humidity;BMP_temperature;BMP_pressure;BME280_temperature;BME280_humidity;BME280_pressure;Samples;Min_cycle;Max_cycle;Signal;HPM_P1;HPM_P2
2021/03/14 00:01:09;;;;;;;3.08;0.77;;;7.90;53.50;;;;;;5113973;27;20707;-75
2021/03/14 00:03:42;;;;;;;2.05;0.75;;;7.90;53.40;;;;;;5116499;27;20192;-75
2021/03/14 00:06:09;;;;;;;3.15;0.65;;;7.90;53.40;;;;;;5112890;27;20207;-75
2021/03/14 00:08:39;;;;;;;4.05;0.73;;;7.90;53.10;;;;;;5116330;27;20275;-75
2021/03/14 00:11:09;;;;;;;1.80;0.70;;;7.90;53.20;;;;;;5117141;27;20645;-75
2021/03/14 00:13:41;;;;;;;1.60;0.60;;;7.90;53.20;;;;;;5128939;27;20259;-75
2021/03/14 00:16:10;;;;;;;2.90;1.20;;;7.90;53.10;;;;;;5112799;27;20227;-75
2021/03/14 00:18:43;;;;;;;2.28;0.90;;;7.90;53.20;;;;;;5115268;27;20188;-75
2021/03/14 00:21:19;;;;;;;1.67;0.80;;;7.90;53.30;;;;;;5112774;27;20662;-75
2021/03/14 00:23:45;;;;;;;1.60;0.65;;;7.90;53.50;;;;;;5115679;27;20180;-75
2021/03/14 00:26:17;;;;;;;3.28;1.02;;;7.90;53.80;;;;;;5112344;27;20184;-76
2021/03/14 00:28:44;;;;;;;2.17;0.70;;;7.80;54.10;;;;;;5112916;27;20218;-75
2021/03/14 00:31:12;;;;;;;4.35;1.65;;;7.80;54.30;;;;;;5116512;27;20581;-76
2021/03/14 00:33:39;;;;;;;3.05;0.73;;;7.70;55.10;;;;;;5113550;28;20553;-75
2021/03/14 00:36:07;;;;;;;1.98;0.77;;;7.60;55.80;;;;;;5130424;27;20287;-75
2021/03/14 00:38:34;;;;;;;5.70;0.93;;;7.60;56.40;;;;;;5124744;27;20654;-75
2021/03/14 00:41:04;;;;;;;2.05;0.75;;;7.50;57.10;;;;;;5112468;28;20192;-75
2021/03/14 00:43:31;;;;;;;5.50;1.38;;;7.50;57.80;;;;;;5120996;27;20281;-75
2021/03/14 00:45:58;;;;;;;1.50;0.60;;;7.40;58.60;;;;;;5112062;28;20210;-75
2021/03/14 00:48:26;;;;;;;1.83;0.60;;;7.40;58.80;;;;;;5113280;28;20216;-76
2021/03/14 00:50:58;;;;;;;4.50;0.70;;;7.30;59.30;;;;;;5112000;28;20245;-75
2021/03/14 00:53:27;;;;;;;1.50;0.60;;;7.20;59.50;;;;;;5113269;28;20220;-76
2021/03/14 00:55:54;;;;;;;2.25;0.60;;;7.20;59.40;;;;;;5112127;28;20220;-75
2021/03/14 00:58:21;;;;;;;1.40;0.50;;;7.10;59.50;;;;;;5120300;28;20200;-76
2021/03/14 01:00:48;;;;;;;1.75;0.60;;;7.00;60.20;;;;;;5136454;27;20195;-76
2021/03/14 01:03:17;;;;;;;1.50;0.70;;;6.80;60.50;;;;;;5136715;27;20641;-76
2021/03/14 01:05:45;;;;;;;1.50;0.50;;;6.70;61.30;;;;;;5137427;27;20222;-75
2021/03/14 01:08:19;;;;;;;1.50;0.50;;;6.70;61.60;;;;;;5136728;27;20645;-76
2021/03/14 01:10:46;;;;;;;1.52;0.50;;;6.60;61.60;;;;;;5137163;27;20187;-75
2021/03/14 01:13:20;;;;;;;1.33;0.55;;;6.50;62.00;;;;;;5136899;27;20198;-75
2021/03/14 01:15:52;;;;;;;1.30;0.50;;;6.40;62.60;;;;;;5137245;27;20581;-75
2021/03/14 01:18:18;;;;;;;1.30;0.47;;;6.30;63.20;;;;;;5136961;27;20222;-75
2021/03/14 01:20:52;;;;;;;1.30;0.50;;;6.30;63.50;;;;;;5137102;27;20195;-75
2021/03/14 01:23:19;;;;;;;2.30;0.50;;;6.30;64.10;;;;;;5136696;27;20298;-75
2021/03/14 01:25:46;;;;;;;1.30;0.50;;;6.20;64.00;;;;;;5136983;27;20227;-75
2021/03/14 01:28:18;;;;;;;1.30;0.50;;;6.20;64.80;;;;;;5136622;27;20219;-75
2021/03/14 01:30:48;;;;;;;1.30;0.50;;;6.10;65.50;;;;;;5136609;27;20223;-75
2021/03/14 01:33:16;;;;;;;1.30;0.40;;;6.00;66.40;;;;;;5136471;27;20195;-75
2021/03/14 01:35:43;;;;;;;1.70;0.50;;;5.90;66.80;;;;;;5136621;27;20280;-75
2021/03/14 01:38:16;;;;;;;1.42;0.65;;;5.90;67.50;;;;;;5136375;27;20263;-75
2021/03/14 01:40:43;;;;;;;1.50;0.60;;;5.90;67.30;;;;;;5136608;27;20216;-76
2021/03/14 01:43:10;;;;;;;1.30;0.50;;;5.90;67.50;;;;;;5135925;27;20192;-76
2021/03/14 01:45:37;;;;;;;1.30;0.50;;;5.90;68.40;;;;;;5136649;27;20215;-76
2021/03/14 01:48:06;;;;;;;1.33;0.57;;;5.80;68.70;;;;;;5136289;27;20230;-75
2021/03/14 01:50:34;;;;;;;1.30;0.50;;;5.80;68.40;;;;;;5136761;27;20638;-76
2021/03/14 01:53:02;;;;;;;1.30;0.40;;;5.90;68.20;;;;;;5136260;27;20184;-76
2021/03/14 01:55:30;;;;;;;3.95;0.70;;;6.00;69.30;;;;;;5135069;27;20613;-75
2021/03/14 01:57:56;;;;;;;1.40;0.50;;;6.00;68.80;;;;;;5136251;27;20246;-76
2021/03/14 02:00:25;;;;;;;1.40;0.50;;;6.00;68.40;;;;;;5136355;27;20192;-75
2021/03/14 02:02:52;;;;;;;1.30;0.50;;;6.10;68.90;;;;;;5136459;27;20212;-76
2021/03/14 02:05:21;;;;;;;1.40;0.50;;;6.20;68.90;;;;;;5132384;27;20191;-75
2021/03/14 02:07:51;;;;;;;1.65;0.60;;;6.20;68.40;;;;;;5136395;27;20192;-75
2021/03/14 02:10:22;;;;;;;1.98;0.47;;;6.30;69.10;;;;;;5115228;28;20195;-74
2021/03/14 02:12:55;;;;;;;1.50;0.50;;;6.30;69.90;;;;;;5116446;27;20214;-75
2021/03/14 02:15:23;;;;;;;1.33;0.50;;;6.30;69.60;;;;;;5135755;27;20226;-74
2021/03/14 02:17:51;;;;;;;1.77;0.50;;;6.30;70.00;;;;;;5135798;27;20203;-74
2021/03/14 02:20:21;;;;;;;1.30;0.50;;;6.30;69.20;;;;;;5135956;27;20192;-74
2021/03/14 02:22:49;;;;;;;1.83;0.50;;;6.40;69.80;;;;;;5135876;27;20951;-74
2021/03/14 02:25:34;;;;;;;1.30;0.50;;;6.40;70.00;;;;;;5135713;27;20192;-74
2021/03/14 02:28:03;;;;;;;1.58;0.60;;;6.30;69.90;;;;;;5135896;27;20199;-74
2021/03/14 02:30:33;;;;;;;1.40;0.50;;;6.40;69.70;;;;;;5135777;27;20216;-75
2021/03/14 02:33:02;;;;;;;1.27;0.45;;;6.40;69.20;;;;;;5135365;27;20191;-74
2021/03/14 02:35:31;;;;;;;1.83;0.68;;;6.40;69.20;;;;;;5136027;27;20215;-75
2021/03/14 02:38:04;;;;;;;2.67;0.60;;;6.40;68.70;;;;;;5135532;27;20543;-75
2021/03/14 02:40:31;;;;;;;1.30;0.50;;;6.40;69.10;;;;;;5135394;27;20184;-75
2021/03/14 02:43:05;;;;;;;1.30;0.50;;;6.40;68.80;;;;;;5135417;27;20235;-74
2021/03/14 02:45:32;;;;;;;1.30;0.43;;;6.30;68.50;;;;;;5135958;27;20188;-75
2021/03/14 02:48:01;;;;;;;1.95;0.50;;;6.40;68.40;;;;;;5134546;27;20233;-74
2021/03/14 02:50:38;;;;;;;2.40;0.50;;;6.40;68.30;;;;;;5135296;27;20241;-75
2021/03/14 02:53:09;;;;;;;1.30;0.50;;;6.40;68.40;;;;;;5135149;27;20661;-75
2021/03/14 02:55:42;;;;;;;1.27;0.40;;;6.30;68.30;;;;;;5135378;27;20223;-75
2021/03/14 02:58:14;;;;;;;1.30;0.43;;;6.20;68.30;;;;;;5134208;27;20188;-75
2021/03/14 03:00:47;;;;;;;1.30;0.50;;;6.20;68.70;;;;;;5135173;27;20672;-75
2021/03/14 03:03:20;;;;;;;1.30;0.50;;;6.20;68.70;;;;;;5134861;27;20241;-75
2021/03/14 03:05:57;;;;;;;1.30;0.50;;;6.20;68.50;;;;;;5135182;27;20283;-75
2021/03/14 03:08:28;;;;;;;1.30;0.50;;;6.10;68.60;;;;;;5134631;27;20187;-75
2021/03/14 03:11:04;;;;;;;1.30;0.45;;;6.10;68.80;;;;;;5135244;27;20202;-75
2021/03/14 03:13:35;;;;;;;1.30;0.40;;;6.00;68.30;;;;;;5134968;27;20611;-75
2021/03/14 03:16:04;;;;;;;1.33;0.50;;;6.00;68.50;;;;;;5135035;27;20219;-75
2021/03/14 03:18:33;;;;;;;1.30;0.47;;;6.00;68.50;;;;;;5134861;27;20271;-75
2021/03/14 03:21:09;;;;;;;1.30;0.47;;;6.00;69.20;;;;;;5134871;27;20188;-75
2021/03/14 03:23:43;;;;;;;1.40;0.50;;;6.00;68.50;;;;;;5134759;27;20252;-75
2021/03/14 03:26:09;;;;;;;1.30;0.50;;;6.00;68.30;;;;;;5134450;27;20612;-75
2021/03/14 03:28:38;;;;;;;1.30;0.50;;;6.00;68.80;;;;;;5134610;27;20191;-75
2021/03/14 03:31:05;;;;;;;1.30;0.50;;;6.00;68.30;;;;;;5134132;27;20218;-75
2021/03/14 03:33:32;;;;;;;1.30;0.50;;;6.00;69.00;;;;;;5134807;27;20613;-76
2021/03/14 03:36:00;;;;;;;1.40;0.50;;;6.00;68.50;;;;;;5134261;27;20669;-75
2021/03/14 03:38:31;;;;;;;1.30;0.40;;;6.10;69.20;;;;;;5134235;27;20278;-75
2021/03/14 03:41:02;;;;;;;1.30;0.50;;;6.00;68.40;;;;;;5134254;27;20282;-75
2021/03/14 03:43:34;;;;;;;1.73;0.50;;;6.10;68.60;;;;;;5134666;27;20191;-75
2021/03/14 03:46:05;;;;;;;1.30;0.50;;;6.00;67.90;;;;;;5133751;27;20211;-75
2021/03/14 03:48:39;;;;;;;1.30;0.40;;;6.00;67.60;;;;;;5134492;27;20211;-75
2021/03/14 03:51:11;;;;;;;1.40;0.40;;;6.00;68.10;;;;;;5133974;27;20194;-75
2021/03/14 03:53:45;;;;;;;1.30;0.50;;;5.90;68.60;;;;;;5134411;27;20192;-75
2021/03/14 03:56:14;;;;;;;2.13;0.50;;;6.00;68.20;;;;;;5133675;27;20210;-75
2021/03/14 03:58:46;;;;;;;1.30;0.40;;;6.00;67.90;;;;;;5133804;27;20192;-75
2021/03/14 04:01:21;;;;;;;1.30;0.50;;;6.00;68.30;;;;;;5133921;27;20194;-75
2021/03/14 04:03:50;;;;;;;1.20;0.40;;;5.90;67.70;;;;;;5134554;27;20203;-75
2021/03/14 04:06:18;;;;;;;1.23;0.40;;;5.90;68.20;;;;;;5134015;27;20188;-75
2021/03/14 04:08:49;;;;;;;1.30;0.50;;;5.90;68.30;;;;;;5134004;27;20282;-75
2021/03/14 04:11:21;;;;;;;1.30;0.40;;;5.70;68.20;;;;;;5133700;27;20180;-75
2021/03/14 04:13:54;;;;;;;1.30;0.40;;;5.80;68.20;;;;;;5134117;27;20187;-75
2021/03/14 04:16:26;;;;;;;1.30;0.40;;;5.80;68.30;;;;;;5133717;27;20218;-75
2021/03/14 04:18:59;;;;;;;2.10;0.40;;;5.70;68.60;;;;;;5134259;27;20188;-75
2021/03/14 04:21:27;;;;;;;1.30;0.50;;;5.70;68.50;;;;;;5133620;27;20190;-74
2021/03/14 04:23:59;;;;;;;1.30;0.40;;;5.70;68.70;;;;;;5133730;27;20725;-75
2021/03/14 04:26:27;;;;;;;1.30;0.50;;;5.70;68.80;;;;;;5133390;27;20191;-75
2021/03/14 04:28:58;;;;;;;1.27;0.40;;;5.70;69.00;;;;;;5133902;27;20191;-75
2021/03/14 04:31:27;;;;;;;1.30;0.40;;;5.70;69.00;;;;;;5133256;27;20677;-75
2021/03/14 04:33:55;;;;;;;1.33;0.47;;;5.70;69.50;;;;;;5133258;27;20199;-75
2021/03/14 04:36:27;;;;;;;1.30;0.40;;;5.70;69.00;;;;;;5133103;27;20259;-75
2021/03/14 04:38:58;;;;;;;1.30;0.50;;;5.70;68.60;;;;;;5133893;27;20195;-75
2021/03/14 04:41:27;;;;;;;1.30;0.50;;;5.70;68.80;;;;;;5133784;27;20308;-76
2021/03/14 04:43:55;;;;;;;2.47;0.40;;;5.60;68.20;;;;;;5133805;27;20244;-75
2021/03/14 04:46:28;;;;;;;2.25;0.50;;;5.70;68.60;;;;;;5132973;27;20188;-76
2021/03/14 04:48:56;;;;;;;1.30;0.50;;;5.70;68.60;;;;;;5133953;27;20899;-76
2021/03/14 04:51:26;;;;;;;1.25;0.50;;;5.80;68.40;;;;;;5132935;28;20598;-75
2021/03/14 04:53:57;;;;;;;1.30;0.40;;;5.80;68.60;;;;;;5133824;28;20191;-75
2021/03/14 04:56:26;;;;;;;1.30;0.50;;;5.80;67.70;;;;;;5133152;28;20568;-75
2021/03/14 04:58:56;;;;;;;1.30;0.50;;;5.80;68.10;;;;;;5133682;28;20195;-75
2021/03/14 05:01:24;;;;;;;1.30;0.50;;;5.70;68.00;;;;;;5133043;27;20206;-75
2021/03/14 05:03:55;;;;;;;1.30;0.40;;;5.60;68.10;;;;;;5113003;28;20196;-76
2021/03/14 05:06:23;;;;;;;1.30;0.50;;;5.70;68.20;;;;;;5122955;27;20638;-76
2021/03/14 05:08:53;;;;;;;1.30;0.50;;;5.60;67.50;;;;;;5133354;27;20282;-75
2021/03/14 05:11:22;;;;;;;1.40;0.50;;;5.60;68.10;;;;;;5133432;28;20188;-75
2021/03/14 05:13:57;;;;;;;1.30;0.50;;;5.60;68.20;;;;;;5133441;28;20187;-75
2021/03/14 05:16:36;;;;;;;1.40;0.50;;;5.60;68.20;;;;;;5132824;27;20222;-75
2021/03/14 05:19:07;;;;;;;1.30;0.40;;;5.60;67.60;;;;;;5133669;27;20248;-75
2021/03/14 05:21:35;;;;;;;1.30;0.50;;;5.60;68.20;;;;;;5133260;28;20237;-75
2021/03/14 05:24:04;;;;;;;1.30;0.50;;;5.60;68.70;;;;;;5133491;28;20191;-75
2021/03/14 05:26:33;;;;;;;1.40;0.50;;;5.50;68.70;;;;;;5133096;28;20270;-75
2021/03/14 05:29:01;;;;;;;1.30;0.40;;;5.50;68.60;;;;;;5133292;27;20196;-76
2021/03/14 05:31:34;;;;;;;1.40;0.50;;;5.50;68.30;;;;;;5133148;27;20223;-75
2021/03/14 05:34:05;;;;;;;1.23;0.40;;;5.50;68.60;;;;;;5133454;28;20206;-75
2021/03/14 05:36:33;;;;;;;1.50;0.60;;;5.40;68.10;;;;;;5132945;28;20751;-75
2021/03/14 05:39:05;;;;;;;1.30;0.50;;;5.40;68.80;;;;;;5133402;27;20609;-75
2021/03/14 05:41:33;;;;;;;1.30;0.50;;;5.40;68.90;;;;;;5132994;27;20188;-75
2021/03/14 05:44:01;;;;;;;1.40;0.50;;;5.40;69.30;;;;;;5132708;28;20180;-75
2021/03/14 05:46:28;;;;;;;2.30;1.00;;;5.40;69.20;;;;;;5135586;27;20623;-75
2021/03/14 05:48:55;;;;;;;1.95;0.70;;;5.40;69.30;;;;;;5136907;27;20221;-75
2021/03/14 05:51:27;;;;;;;1.70;0.60;;;5.40;69.60;;;;;;5136905;27;20199;-75
2021/03/14 05:53:56;;;;;;;1.60;0.60;;;5.40;69.30;;;;;;5136689;27;20191;-75
2021/03/14 05:56:27;;;;;;;1.70;1.00;;;5.50;70.00;;;;;;5136189;27;20215;-75
2021/03/14 05:58:57;;;;;;;2.40;1.50;;;5.40;69.90;;;;;;5136675;27;20646;-75
2021/03/14 06:01:29;;;;;;;1.58;0.70;;;5.40;70.20;;;;;;5136920;27;20192;-75
2021/03/14 06:03:57;;;;;;;1.98;1.05;;;5.40;70.00;;;;;;5136394;27;20279;-75
2021/03/14 06:06:26;;;;;;;1.52;0.70;;;5.40;69.70;;;;;;5136546;27;20280;-75
2021/03/14 06:08:54;;;;;;;1.70;0.85;;;5.50;69.80;;;;;;5136100;27;20656;-75
2021/03/14 06:11:23;;;;;;;3.60;1.33;;;5.50;68.90;;;;;;5117314;27;20192;-76
2021/03/14 06:13:54;;;;;;;1.90;0.70;;;5.40;68.70;;;;;;5136533;27;20654;-75
2021/03/14 06:16:22;;;;;;;1.63;0.82;;;5.40;68.40;;;;;;5136017;27;20222;-76
2021/03/14 06:18:55;;;;;;;1.60;0.70;;;5.50;68.20;;;;;;5136463;27;20188;-76
2021/03/14 06:21:24;;;;;;;1.70;0.68;;;5.50;67.90;;;;;;5136131;27;20611;-76
2021/03/14 06:24:06;;;;;;;1.30;0.50;;;5.50;67.70;;;;;;5136321;27;20278;-76
2021/03/14 06:26:39;;;;;;;2.00;0.90;;;5.50;67.50;;;;;;5136118;27;20638;-76
2021/03/14 06:29:26;;;;;;;7.18;1.73;;;5.50;67.10;;;;;;5135885;27;20191;-76
2021/03/14 06:31:56;;;;;;;1.60;0.60;;;5.60;66.10;;;;;;5115753;28;20231;-76
2021/03/14 06:34:31;;;;;;;1.50;0.55;;;5.60;63.60;;;;;;5117299;27;20201;-76
2021/03/14 06:37:09;;;;;;;2.95;0.90;;;5.50;63.30;;;;;;5135527;27;20235;-75
2021/03/14 06:39:40;;;;;;;1.50;0.70;;;5.60;63.20;;;;;;5135884;27;20234;-75
2021/03/14 06:42:09;;;;;;;2.00;0.60;;;5.70;62.90;;;;;;5135970;27;20191;-75
2021/03/14 06:44:38;;;;;;;1.52;0.60;;;5.60;60.60;;;;;;5135475;27;20187;-76
2021/03/14 06:47:07;;;;;;;1.77;0.95;;;5.60;61.60;;;;;;5135385;27;20184;-75
2021/03/14 06:49:38;;;;;;;1.58;0.50;;;5.60;60.70;;;;;;5131090;27;20270;-76
2021/03/14 06:52:09;;;;;;;3.17;0.93;;;5.60;60.50;;;;;;5121546;27;20185;-76
2021/03/14 06:54:38;;;;;;;2.33;0.82;;;5.60;60.30;;;;;;5114328;27;20192;-76
2021/03/14 06:57:11;;;;;;;2.05;0.90;;;5.60;60.00;;;;;;5124158;27;20219;-76
2021/03/14 06:59:40;;;;;;;2.50;1.10;;;5.60;60.20;;;;;;5131692;27;20223;-76
2021/03/14 07:02:09;;;;;;;2.97;0.90;;;5.60;60.50;;;;;;5123587;27;20188;-76
2021/03/14 07:04:48;;;;;;;2.03;0.90;;;5.70;59.80;;;;;;5132133;27;20214;-76
2021/03/14 07:07:20;;;;;;;2.05;0.70;;;5.60;58.70;;;;;;5123139;27;20227;-76
2021/03/14 07:09:48;;;;;;;1.80;0.68;;;5.60;58.60;;;;;;5112208;27;20189;-76
2021/03/14 07:12:20;;;;;;;2.72;0.80;;;5.50;58.80;;;;;;5119136;27;20214;-76
2021/03/14 07:14:48;;;;;;;1.98;0.80;;;5.40;58.90;;;;;;5114364;27;20196;-76
2021/03/14 07:17:43;;;;;;;3.88;0.70;;;5.50;59.30;;;;;;5125016;27;20251;-76
2021/03/14 07:20:19;;;;;;;2.95;0.77;;;5.40;58.90;;;;;;5070204;27;20596;-76
2021/03/14 07:22:59;;;;;;;3.15;0.80;;;5.40;59.50;;;;;;5120097;27;20190;-76
2021/03/14 07:25:26;;;;;;;4.63;0.70;;;5.20;59.50;;;;;;5127788;27;20191;-77
2021/03/14 07:27:54;;;;;;;2.22;1.38;;;5.30;60.40;;;;;;5116268;27;20203;-76
2021/03/14 07:30:27;;;;;;;5.28;1.73;;;5.30;60.20;;;;;;5112285;27;20632;-75
2021/03/14 07:33:02;;;;;;;1.95;0.90;;;5.30;61.70;;;;;;5114841;27;20532;-75
2021/03/14 07:35:39;;;;;;;2.13;0.73;;;5.40;62.40;;;;;;5122364;27;20218;-75
2021/03/14 07:38:21;;;;;;;2.33;1.00;;;5.40;62.30;;;;;;5116275;27;20199;-75
2021/03/14 07:40:48;;;;;;;2.35;0.70;;;5.50;61.90;;;;;;5112449;27;20248;-77
2021/03/14 07:43:15;;;;;;;1.85;0.75;;;5.60;61.90;;;;;;5131607;27;20192;-76
2021/03/14 07:45:48;;;;;;;5.00;1.60;;;5.60;61.50;;;;;;5131623;27;20196;-76
2021/03/14 07:48:17;;;;;;;1.77;0.80;;;5.70;61.30;;;;;;5113289;27;20190;-77
2021/03/14 07:50:45;;;;;;;4.82;1.00;;;5.80;60.20;;;;;;5113145;27;20241;-77
2021/03/14 07:53:19;;;;;;;2.38;1.25;;;5.80;59.50;;;;;;5115333;27;20193;-77
2021/03/14 07:55:54;;;;;;;2.22;1.10;;;5.90;59.80;;;;;;5113183;27;20303;-77
2021/03/14 07:58:30;;;;;;;2.08;0.80;;;6.00;59.90;;;;;;5119119;27;20187;-77
2021/03/14 08:01:15;;;;;;;4.55;0.90;;;6.10;60.00;;;;;;5112498;27;20196;-77
2021/03/14 08:03:43;;;;;;;1.40;0.60;;;6.10;59.80;;;;;;5113030;27;20710;-76
2021/03/14 08:06:10;;;;;;;1.70;0.60;;;6.20;59.70;;;;;;5123905;27;20195;-76
2021/03/14 08:08:48;;;;;;;2.42;0.90;;;6.30;58.90;;;;;;5112281;27;20309;-76
2021/03/14 08:11:27;;;;;;;1.58;0.65;;;6.70;59.40;;;;;;5115074;27;20246;-76
2021/03/14 08:13:56;;;;;;;2.05;0.70;;;7.20;57.40;;;;;;5112662;27;20287;-77
2021/03/14 08:16:38;;;;;;;1.60;0.70;;;7.50;56.10;;;;;;5115850;27;20229;-76
2021/03/14 08:19:13;;;;;;;5.32;1.30;;;7.90;54.40;;;;;;5115903;27;20192;-76
2021/03/14 08:21:45;;;;;;;1.85;1.10;;;8.30;53.50;;;;;;5121164;27;20565;-76
2021/03/14 08:24:16;;;;;;;2.35;1.00;;;8.30;52.10;;;;;;5126800;27;20199;-76
2021/03/14 08:26:45;;;;;;;2.05;1.10;;;8.20;51.80;;;;;;5127319;27;20189;-76
2021/03/14 08:29:14;;;;;;;2.45;0.70;;;8.00;50.90;;;;;;5112705;27;20195;-76
2021/03/14 08:31:43;;;;;;;2.17;0.70;;;7.80;50.80;;;;;;5125081;27;20686;-76
2021/03/14 08:34:50;;;;;;;2.40;0.70;;;7.60;51.70;;;;;;5127600;27;20288;-75
2021/03/14 08:37:24;;;;;;;2.15;0.80;;;7.40;52.60;;;;;;5120754;27;20596;-76
2021/03/14 08:39:59;;;;;;;2.70;0.77;;;7.20;53.60;;;;;;5112566;27;20195;-76
2021/03/14 08:42:49;;;;;;;1.70;0.80;;;7.10;54.60;;;;;;5113629;27;20282;-75
2021/03/14 08:45:21;;;;;;;3.40;0.95;;;6.90;55.60;;;;;;5121055;27;20188;-76
2021/03/14 08:47:49;;;;;;;2.00;1.00;;;6.90;56.40;;;;;;5127408;27;20202;-75
2021/03/14 08:50:19;;;;;;;1.80;0.80;;;6.90;56.80;;;;;;5127537;27;20203;-75
2021/03/14 08:52:45;;;;;;;3.25;0.60;;;6.90;57.00;;;;;;5129300;28;20664;-75
2021/03/14 08:55:23;;;;;;;1.60;0.90;;;6.90;57.70;;;;;;5121964;28;20184;-78
2021/03/14 08:57:50;;;;;;;2.30;0.90;;;6.90;57.60;;;;;;5129908;28;20229;-76
2021/03/14 09:00:17;;;;;;;2.95;0.90;;;6.90;57.80;;;;;;5115927;28;20657;-76
2021/03/14 09:02:46;;;;;;;2.28;0.98;;;7.00;58.00;;;;;;5112194;28;20188;-76
2021/03/14 09:05:15;;;;;;;2.00;0.85;;;7.10;57.90;;;;;;5112411;28;21000;-76
2021/03/14 09:07:42;;;;;;;2.30;1.02;;;7.00;56.70;;;;;;5111960;28;20271;-76
2021/03/14 09:10:11;;;;;;;2.55;0.90;;;7.10;58.20;;;;;;5129910;28;20248;-76
2021/03/14 09:12:41;;;;;;;2.92;1.50;;;7.20;58.30;;;;;;5130651;28;20645;-75
2021/03/14 09:15:10;;;;;;;2.35;0.70;;;7.40;59.30;;;;;;5130440;28;20188;-76
2021/03/14 09:17:37;;;;;;;3.50;1.00;;;7.90;58.80;;;;;;5124938;28;20195;-76
2021/03/14 09:20:06;;;;;;;5.03;1.00;;;8.40;58.00;;;;;;5120565;27;20920;-76
2021/03/14 09:22:34;;;;;;;2.90;0.95;;;8.90;56.00;;;;;;5116003;27;20249;-76
2021/03/14 09:25:02;;;;;;;2.30;0.88;;;9.10;54.60;;;;;;5125676;27;20657;-76
2021/03/14 09:27:31;;;;;;;1.98;1.00;;;9.10;53.60;;;;;;5130501;27;20202;-76
2021/03/14 09:29:59;;;;;;;7.10;2.22;;;9.00;53.40;;;;;;5124987;27;20226;-76
2021/03/14 09:32:35;;;;;;;1.85;0.95;;;8.80;53.80;;;;;;5116135;27;20196;-76
2021/03/14 09:35:17;;;;;;;1.90;1.00;;;8.60;53.80;;;;;;5131906;27;20187;-74
2021/03/14 09:37:46;;;;;;;1.90;0.90;;;8.50;54.90;;;;;;5132907;27;20191;-76
2021/03/14 09:40:19;;;;;;;2.30;1.10;;;8.50;54.60;;;;;;5124847;27;20626;-77
2021/03/14 09:42:47;;;;;;;1.92;0.82;;;8.30;55.20;;;;;;5134259;27;20249;-76
2021/03/14 09:45:16;;;;;;;2.53;0.95;;;8.20;55.50;;;;;;5120142;27;20203;-76
2021/03/14 09:48:05;;;;;;;4.13;0.98;;;8.10;55.80;;;;;;5115438;27;20196;-77
2021/03/14 09:50:35;;;;;;;2.78;1.00;;;8.20;55.80;;;;;;5123905;27;20196;-76
2021/03/14 09:53:03;;;;;;;1.95;0.95;;;8.50;55.40;;;;;;5118385;27;20528;-76
2021/03/14 09:55:32;;;;;;;6.35;1.70;;;8.80;55.20;;;;;;5116582;27;20212;-76
2021/03/14 09:58:00;;;;;;;2.60;1.00;;;9.60;55.00;;;;;;5116896;27;20246;-76
2021/03/14 10:00:29;;;;;;;2.35;1.23;;;10.70;53.40;;;;;;5119982;27;20283;-76
2021/03/14 10:02:59;;;;;;;2.70;1.48;;;11.40;48.70;;;;;;5116127;27;20271;-76
2021/03/14 10:05:26;;;;;;;1.63;0.85;;;11.20;46.30;;;;;;5128769;27;20690;-75
2021/03/14 10:07:54;;;;;;;1.85;1.15;;;10.90;45.00;;;;;;5134029;27;20188;-76
2021/03/14 10:10:21;;;;;;;1.73;0.80;;;10.50;44.60;;;;;;5130251;27;20188;-76
2021/03/14 10:12:49;;;;;;;2.30;1.10;;;10.00;45.10;;;;;;5116523;27;20235;-76
2021/03/14 10:15:17;;;;;;;1.60;0.82;;;9.80;47.00;;;;;;5115188;27;20192;-76
2021/03/14 10:17:46;;;;;;;2.15;0.90;;;9.60;47.00;;;;;;5118691;27;20207;-75
2021/03/14 10:20:14;;;;;;;2.65;0.80;;;9.30;47.60;;;;;;5133666;27;20660;-75
2021/03/14 10:22:41;;;;;;;2.70;1.10;;;9.00;47.70;;;;;;5133462;27;20214;-76
2021/03/14 10:25:25;;;;;;;2.15;0.88;;;8.90;49.00;;;;;;5118602;27;20262;-75
2021/03/14 10:27:52;;;;;;;2.15;1.10;;;9.30;51.10;;;;;;5116038;27;20188;-75
2021/03/14 10:30:20;;;;;;;2.95;1.00;;;9.80;49.20;;;;;;5133386;27;20272;-76
2021/03/14 10:32:48;;;;;;;3.03;1.33;;;10.10;47.30;;;;;;5107186;27;20257;-77
2021/03/14 10:35:17;;;;;;;1.90;0.88;;;10.30;45.70;;;;;;5116128;27;20184;-75
2021/03/14 10:37:44;;;;;;;2.40;1.65;;;10.20;44.60;;;;;;5114018;27;20203;-75
2021/03/14 10:40:21;;;;;;;3.63;1.40;;;10.30;45.10;;;;;;5116061;27;20207;-76
2021/03/14 10:42:52;;;;;;;2.58;1.30;;;10.20;44.40;;;;;;5113267;27;20192;-76
2021/03/14 10:45:20;;;;;;;1.90;0.80;;;9.90;45.20;;;;;;5113803;27;20189;-76
2021/03/14 10:47:59;;;;;;;2.45;1.23;;;9.50;45.10;;;;;;5113435;27;20188;-76
2021/03/14 10:50:30;;;;;;;4.82;1.10;;;9.20;45.50;;;;;;5117522;27;20191;-75
2021/03/14 10:53:09;;;;;;;3.30;1.33;;;9.00;46.20;;;;;;5113901;27;20232;-76
2021/03/14 10:55:37;;;;;;;2.47;1.08;;;8.80;46.70;;;;;;5127739;27;20211;-76
2021/03/14 10:58:07;;;;;;;2.47;0.98;;;8.60;47.10;;;;;;5131861;27;20258;-75
2021/03/14 11:00:38;;;;;;;2.85;1.25;;;8.40;47.70;;;;;;5131079;27;20203;-75
2021/03/14 11:03:13;;;;;;;1.60;0.75;;;8.20;49.10;;;;;;5126400;27;20199;-75
2021/03/14 11:05:42;;;;;;;3.33;1.10;;;8.40;51.60;;;;;;5131444;27;20215;-76
2021/03/14 11:08:08;;;;;;;4.20;1.35;;;11.00;55.00;;;;;;5130619;27;20645;-75
2021/03/14 11:10:36;;;;;;;1.70;0.90;;;14.00;48.80;;;;;;5116650;27;20242;-75
2021/03/14 11:13:15;;;;;;;3.30;2.00;;;16.30;41.80;;;;;;5117210;27;20689;-75
2021/03/14 11:15:42;;;;;;;2.95;1.15;;;18.10;36.40;;;;;;5112437;27;20719;-76
2021/03/14 11:18:21;;;;;;;4.38;2.45;;;19.30;35.50;;;;;;5118607;27;20187;-74
2021/03/14 11:20:49;;;;;;;2.27;1.00;;;20.70;32.30;;;;;;5114190;27;20191;-74
2021/03/14 11:23:21;;;;;;;1.90;1.10;;;22.00;31.00;;;;;;5127800;27;20432;-73
2021/03/14 11:25:52;;;;;;;2.23;1.20;;;23.10;26.50;;;;;;5124966;27;20804;-74
2021/03/14 11:28:21;;;;;;;2.30;1.20;;;23.00;25.10;;;;;;5127202;27;20439;-75
2021/03/14 11:30:48;;;;;;;2.63;1.10;;;22.40;23.60;;;;;;5127559;27;20228;-73
2021/03/14 11:33:15;;;;;;;2.20;1.17;;;21.60;23.80;;;;;;5125932;27;20467;-73
2021/03/14 11:35:43;;;;;;;2.70;0.90;;;21.10;24.30;;;;;;5130170;27;20247;-73
2021/03/14 11:38:15;;;;;;;2.87;0.93;;;21.10;24.90;;;;;;5125850;27;20919;-75
2021/03/14 11:40:44;;;;;;;1.87;0.87;;;21.90;26.60;;;;;;5125330;27;20445;-74
2021/03/14 11:43:11;;;;;;;2.20;1.03;;;23.00;24.10;;;;;;5125530;27;20450;-77
2021/03/14 11:45:44;;;;;;;3.30;1.00;;;23.60;23.20;;;;;;5129113;27;20449;-75
2021/03/14 11:48:17;;;;;;;2.10;0.87;;;22.50;21.60;;;;;;5126635;27;20461;-75
2021/03/14 11:50:49;;;;;;;2.70;1.03;;;20.90;21.40;;;;;;5128167;27;20434;-75
2021/03/14 11:53:15;;;;;;;3.40;1.20;;;19.90;23.20;;;;;;5127261;27;20444;-75
2021/03/14 11:55:42;;;;;;;2.27;1.43;;;18.90;24.50;;;;;;5126297;27;20477;-75
2021/03/14 11:58:10;;;;;;;3.30;1.53;;;18.50;25.30;;;;;;5125568;27;20970;-76
2021/03/14 12:00:39;;;;;;;2.77;1.00;;;18.10;26.40;;;;;;5129692;27;20458;-76
2021/03/14 12:03:05;;;;;;;3.13;1.30;;;17.60;26.00;;;;;;5127390;27;20433;-75
2021/03/14 12:05:33;;;;;;;2.27;1.00;;;17.70;27.70;;;;;;5125740;27;20544;-76
2021/03/14 12:08:00;;;;;;;3.50;1.30;;;20.00;30.40;;;;;;5123417;27;20443;-76
2021/03/14 12:10:26;;;;;;;2.37;0.90;;;22.90;27.90;;;;;;5128570;27;20472;-76
2021/03/14 12:12:53;;;;;;;3.17;1.33;;;25.80;23.60;;;;;;5126811;27;20469;-76
2021/03/14 12:15:19;;;;;;;2.27;1.07;;;26.80;22.00;;;;;;5129483;27;20570;-76
2021/03/14 12:17:46;;;;;;;3.37;1.13;;;26.30;19.30;;;;;;5126825;27;20469;-76
2021/03/14 12:20:13;;;;;;;3.30;1.70;;;24.80;19.10;;;;;;5126301;27;20521;-76
2021/03/14 12:22:41;;;;;;;2.30;0.90;;;23.00;19.30;;;;;;5128444;27;20437;-76
2021/03/14 12:25:08;;;;;;;2.30;1.20;;;21.60;20.40;;;;;;5127019;27;20440;-76
2021/03/14 12:27:35;;;;;;;1.83;1.10;;;20.40;21.70;;;;;;5122965;27;20442;-75
2021/03/14 12:30:01;;;;;;;1.97;1.00;;;19.80;22.80;;;;;;5127510;27;20472;-75
2021/03/14 12:32:28;;;;;;;2.33;1.00;;;20.30;24.80;;;;;;5123047;27;20437;-76
2021/03/14 12:34:55;;;;;;;1.90;0.80;;;22.30;25.00;;;;;;5124824;27;20466;-76
2021/03/14 12:37:22;;;;;;;1.70;0.80;;;24.50;22.80;;;;;;5124234;27;21043;-75
2021/03/14 12:39:49;;;;;;;2.10;0.80;;;25.20;19.50;;;;;;5121949;27;20954;-75
2021/03/14 12:42:16;;;;;;;2.57;1.03;;;23.90;18.60;;;;;;5128727;27;20445;-76
2021/03/14 12:44:44;;;;;;;2.00;0.80;;;22.10;18.60;;;;;;5123369;27;20441;-77
2021/03/14 12:47:10;;;;;;;1.90;0.80;;;20.70;20.00;;;;;;5117245;27;20434;-75
2021/03/14 12:49:37;;;;;;;3.53;0.90;;;19.40;21.00;;;;;;5125829;27;20801;-75
2021/03/14 12:52:03;;;;;;;2.60;0.70;;;18.20;22.40;;;;;;5125163;27;20425;-75
2021/03/14 12:54:30;;;;;;;2.03;1.00;;;17.20;23.30;;;;;;5121103;27;20453;-75
2021/03/14 12:56:57;;;;;;;4.87;1.20;;;16.30;23.80;;;;;;5124501;28;20529;-75
2021/03/14 12:59:24;;;;;;;1.60;0.60;;;15.40;25.00;;;;;;5125310;28;20437;-76
2021/03/14 13:01:51;;;;;;;2.35;1.15;;;14.50;25.70;;;;;;5121303;28;21497;-76
2021/03/14 13:04:17;;;;;;;2.67;0.95;;;13.90;27.00;;;;;;5126775;28;20245;-76
2021/03/14 13:06:44;;;;;;;2.13;1.23;;;13.30;28.60;;;;;;5124680;28;20199;-77
2021/03/14 13:09:13;;;;;;;2.42;1.30;;;13.00;29.00;;;;;;5126985;28;20177;-76
2021/03/14 13:11:39;;;;;;;1.95;0.98;;;12.40;29.00;;;;;;5128317;27;20221;-77